Terminal Aerodrome Forecast
Issued by NWS

Home | Current Version | Previous Version | Text Only | Print | Product List | Glossary On
Versions: 1 2 3 4 5 6 7 8 9 10 11 12 13
000
FTUS45 KTFX 231100 RRA
TAFLWT
TAF
KLWT 231143Z 2312/2412 VRB05KT P6SM SKC
     FM231700 29011KT P6SM SCT100 BKN180
     FM240200 13006KT P6SM SCT080 BKN150=

USA.gov is the U.S. government's official web portal to all federal, state and local government web resources and services.